sensor_id;sensor_type;location;lat;lon;timestamp;pressure;altitude;pressure_sealevel;temperature;humidity
70968;BME280;58629;48.808;8.820;2023-03-14T00:00:16;95495.72;;;9.09;100.00
70968;BME280;58629;48.808;8.820;2023-03-14T00:02:42;95517.84;;;9.02;100.00
70968;BME280;58629;48.808;8.820;2023-03-14T00:05:08;95511.28;;;9.07;100.00
70968;BME280;58629;48.808;8.820;2023-03-14T00:07:35;95505.38;;;9.03;100.00
70968;BME280;58629;48.808;8.820;2023-03-14T00:10:05;95498.19;;;9.03;100.00
70968;BME280;58629;48.808;8.820;2023-03-14T00:12:31;95506.69;;;8.98;100.00
70968;BME280;58629;48.808;8.820;2023-03-14T00:14:57;95497.31;;;8.97;100.00
70968;BME280;58629;48.808;8.820;2023-03-14T00:17:22;95505.22;;;8.97;100.00
70968;BME280;58629;48.808;8.820;2023-03-14T00:19:48;95497.59;;;8.99;100.00
70968;BME280;58629;48.808;8.820;2023-03-14T00:22:17;95491.84;;;8.92;100.00
70968;BME280;58629;48.808;8.820;2023-03-14T00:24:43;95501.31;;;8.80;100.00
70968;BME280;58629;48.808;8.820;2023-03-14T00:27:08;95510.72;;;8.81;100.00
70968;BME280;58629;48.808;8.820;2023-03-14T00:29:34;95499.97;;;8.75;100.00
70968;BME280;58629;48.808;8.820;2023-03-14T00:31:59;95501.44;;;8.77;100.00
70968;BME280;58629;48.808;8.820;2023-03-14T00:34:28;95502.19;;;8.77;100.00
70968;BME280;58629;48.808;8.820;2023-03-14T00:36:54;95491.38;;;8.84;100.00
70968;BME280;58629;48.808;8.820;2023-03-14T00:39:19;95497.31;;;8.75;100.00
70968;BME280;58629;48.808;8.820;2023-03-14T00:41:44;95491.75;;;8.73;100.00
70968;BME280;58629;48.808;8.820;2023-03-14T00:44:10;95490.59;;;8.74;100.00
70968;BME280;58629;48.808;8.820;2023-03-14T00:46:35;95489.84;;;8.74;100.00
70968;BME280;58629;48.808;8.820;2023-03-14T00:49:00;95505.75;;;8.83;100.00
70968;BME280;58629;48.808;8.820;2023-03-14T00:51:25;95508.19;;;8.77;100.00
70968;BME280;58629;48.808;8.820;2023-03-14T00:53:51;95495.44;;;8.76;100.00
70968;BME280;58629;48.808;8.820;2023-03-14T00:56:16;95509.06;;;8.74;100.00
70968;BME280;58629;48.808;8.820;2023-03-14T00:58:42;95530.63;;;8.73;100.00
70968;BME280;58629;48.808;8.820;2023-03-14T01:01:09;95542.50;;;8.77;100.00
70968;BME280;58629;48.808;8.820;2023-03-14T01:03:35;95526.78;;;8.74;100.00
70968;BME280;58629;48.808;8.820;2023-03-14T01:06:08;95520.06;;;8.73;100.00
70968;BME280;58629;48.808;8.820;2023-03-14T01:08:33;95514.03;;;8.72;100.00
70968;BME280;58629;48.808;8.820;2023-03-14T01:10:59;95509.50;;;8.73;100.00
70968;BME280;58629;48.808;8.820;2023-03-14T01:13:24;95496.03;;;8.80;100.00
70968;BME280;58629;48.808;8.820;2023-03-14T01:15:49;95513.66;;;8.83;100.00
70968;BME280;58629;48.808;8.820;2023-03-14T01:18:14;95509.84;;;8.84;100.00
70968;BME280;58629;48.808;8.820;2023-03-14T01:20:40;95504.88;;;8.86;100.00
70968;BME280;58629;48.808;8.820;2023-03-14T01:23:05;95481.41;;;8.88;100.00
70968;BME280;58629;48.808;8.820;2023-03-14T01:25:30;95470.41;;;8.90;100.00
70968;BME280;58629;48.808;8.820;2023-03-14T01:27:56;95459.13;;;8.89;100.00
70968;BME280;58629;48.808;8.820;2023-03-14T01:30:21;95453.25;;;8.85;100.00
70968;BME280;58629;48.808;8.820;2023-03-14T01:32:47;95443.56;;;8.82;100.00
70968;BME280;58629;48.808;8.820;2023-03-14T01:35:12;95433.91;;;8.88;100.00
70968;BME280;58629;48.808;8.820;2023-03-14T01:37:37;95418.34;;;8.81;100.00
70968;BME280;58629;48.808;8.820;2023-03-14T01:40:03;95409.53;;;8.75;100.00
70968;BME280;58629;48.808;8.820;2023-03-14T01:42:30;95412.72;;;8.70;100.00
70968;BME280;58629;48.808;8.820;2023-03-14T01:44:58;95407.75;;;8.72;100.00
70968;BME280;58629;48.808;8.820;2023-03-14T01:47:24;95410.81;;;8.70;100.00
70968;BME280;58629;48.808;8.820;2023-03-14T01:50:04;95405.25;;;8.68;100.00
70968;BME280;58629;48.808;8.820;2023-03-14T01:52:37;95409.47;;;8.66;100.00
70968;BME280;58629;48.808;8.820;2023-03-14T01:55:10;95415.34;;;8.70;100.00
70968;BME280;58629;48.808;8.820;2023-03-14T01:57:43;95413.75;;;8.72;100.00
70968;BME280;58629;48.808;8.820;2023-03-14T02:00:12;95401.16;;;8.77;100.00
70968;BME280;58629;48.808;8.820;2023-03-14T02:02:42;95396.59;;;8.68;100.00
70968;BME280;58629;48.808;8.820;2023-03-14T02:05:09;95408.56;;;8.60;100.00
70968;BME280;58629;48.808;8.820;2023-03-14T02:07:43;95405.09;;;8.63;100.00
70968;BME280;58629;48.808;8.820;2023-03-14T02:10:12;95412.25;;;8.62;100.00
70968;BME280;58629;48.808;8.820;2023-03-14T02:12:39;95399.06;;;8.62;100.00
70968;BME280;58629;48.808;8.820;2023-03-14T02:15:04;95390.41;;;8.62;100.00
70968;BME280;58629;48.808;8.820;2023-03-14T02:17:30;95399.22;;;8.68;100.00
70968;BME280;58629;48.808;8.820;2023-03-14T02:22:27;95395.16;;;8.76;100.00
70968;BME280;58629;48.808;8.820;2023-03-14T02:27:38;95388.50;;;8.53;100.00
70968;BME280;58629;48.808;8.820;2023-03-14T02:32:34;95393.47;;;8.51;100.00
70968;BME280;58629;48.808;8.820;2023-03-14T02:35:05;95393.63;;;8.57;100.00
70968;BME280;58629;48.808;8.820;2023-03-14T02:37:46;95389.38;;;8.59;99.96
70968;BME280;58629;48.808;8.820;2023-03-14T02:40:13;95396.50;;;8.50;100.00
70968;BME280;58629;48.808;8.820;2023-03-14T02:42:38;95384.06;;;8.50;100.00
70968;BME280;58629;48.808;8.820;2023-03-14T02:47:37;95391.34;;;8.37;100.00
70968;BME280;58629;48.808;8.820;2023-03-14T02:50:10;95390.75;;;8.33;100.00
70968;BME280;58629;48.808;8.820;2023-03-14T02:52:37;95393.50;;;8.30;100.00
70968;BME280;58629;48.808;8.820;2023-03-14T02:55:03;95383.69;;;8.30;99.72
70968;BME280;58629;48.808;8.820;2023-03-14T02:57:29;95372.81;;;8.28;100.00
70968;BME280;58629;48.808;8.820;2023-03-14T02:59:58;95345.38;;;8.47;100.00
70968;BME280;58629;48.808;8.820;2023-03-14T03:02:23;95355.41;;;8.31;100.00
70968;BME280;58629;48.808;8.820;2023-03-14T03:04:49;95365.34;;;8.27;100.00
70968;BME280;58629;48.808;8.820;2023-03-14T03:07:14;95353.25;;;8.38;100.00
70968;BME280;58629;48.808;8.820;2023-03-14T03:09:39;95341.63;;;8.27;100.00
70968;BME280;58629;48.808;8.820;2023-03-14T03:12:04;95340.38;;;8.19;100.00
70968;BME280;58629;48.808;8.820;2023-03-14T03:14:30;95333.06;;;8.14;100.00
70968;BME280;58629;48.808;8.820;2023-03-14T03:16:55;95330.28;;;8.17;98.84
70968;BME280;58629;48.808;8.820;2023-03-14T03:19:20;95338.13;;;8.08;99.92
70968;BME280;58629;48.808;8.820;2023-03-14T03:21:46;95321.75;;;8.13;97.55
70968;BME280;58629;48.808;8.820;2023-03-14T03:24:11;95324.09;;;8.11;96.88
70968;BME280;58629;48.808;8.820;2023-03-14T03:26:36;95320.13;;;8.07;95.51
70968;BME280;58629;48.808;8.820;2023-03-14T03:29:02;95319.00;;;8.17;93.79
70968;BME280;58629;48.808;8.820;2023-03-14T03:31:28;95315.00;;;8.12;94.98
70968;BME280;58629;48.808;8.820;2023-03-14T03:33:53;95305.66;;;8.11;93.76
70968;BME280;58629;48.808;8.820;2023-03-14T03:36:23;95307.97;;;8.09;94.95
70968;BME280;58629;48.808;8.820;2023-03-14T03:38:49;95302.25;;;8.02;96.71
70968;BME280;58629;48.808;8.820;2023-03-14T03:41:15;95296.97;;;8.02;95.51
70968;BME280;58629;48.808;8.820;2023-03-14T03:43:40;95293.44;;;7.96;96.17
70968;BME280;58629;48.808;8.820;2023-03-14T03:46:06;95282.31;;;8.01;93.46
70968;BME280;58629;48.808;8.820;2023-03-14T03:48:32;95284.34;;;7.97;94.87
70968;BME280;58629;48.808;8.820;2023-03-14T03:50:58;95282.16;;;7.95;94.26
70968;BME280;58629;48.808;8.820;2023-03-14T03:53:23;95281.09;;;7.93;93.95
70968;BME280;58629;48.808;8.820;2023-03-14T03:55:48;95275.41;;;7.94;93.94
70968;BME280;58629;48.808;8.820;2023-03-14T03:58:14;95267.50;;;7.94;92.30
70968;BME280;58629;48.808;8.820;2023-03-14T04:00:39;95260.31;;;7.95;93.66
70968;BME280;58629;48.808;8.820;2023-03-14T04:03:05;95255.19;;;7.91;94.00
70968;BME280;58629;48.808;8.820;2023-03-14T04:05:30;95254.72;;;7.83;94.06
70968;BME280;58629;48.808;8.820;2023-03-14T04:07:55;95261.63;;;7.90;92.90
70968;BME280;58629;48.808;8.820;2023-03-14T04:10:21;95259.47;;;7.98;91.49
70968;BME280;58629;48.808;8.820;2023-03-14T04:12:46;95256.66;;;7.92;91.89
70968;BME280;58629;48.808;8.820;2023-03-14T04:15:11;95255.47;;;7.84;92.75
70968;BME280;58629;48.808;8.820;2023-03-14T04:17:36;95252.81;;;7.84;92.75
70968;BME280;58629;48.808;8.820;2023-03-14T04:20:02;95245.16;;;7.77;93.73
70968;BME280;58629;48.808;8.820;2023-03-14T04:22:28;95257.66;;;7.85;93.78
70968;BME280;58629;48.808;8.820;2023-03-14T04:24:53;95252.09;;;7.83;91.47
70968;BME280;58629;48.808;8.820;2023-03-14T04:27:19;95248.53;;;7.77;93.10
70968;BME280;58629;48.808;8.820;2023-03-14T04:29:44;95246.03;;;7.74;93.28
70968;BME280;58629;48.808;8.820;2023-03-14T04:32:10;95230.94;;;7.65;92.30
70968;BME280;58629;48.808;8.820;2023-03-14T04:34:35;95244.97;;;7.62;92.88
70968;BME280;58629;48.808;8.820;2023-03-14T04:37:00;95226.94;;;7.61;93.31
70968;BME280;58629;48.808;8.820;2023-03-14T04:39:26;95227.81;;;7.58;93.26
70968;BME280;58629;48.808;8.820;2023-03-14T04:41:51;95213.59;;;7.55;93.91
70968;BME280;58629;48.808;8.820;2023-03-14T04:44:17;95217.81;;;7.53;94.49
70968;BME280;58629;48.808;8.820;2023-03-14T04:46:42;95224.72;;;7.50;95.01
70968;BME280;58629;48.808;8.820;2023-03-14T04:49:08;95214.88;;;7.51;94.33
70968;BME280;58629;48.808;8.820;2023-03-14T04:51:33;95208.16;;;7.50;94.17
70968;BME280;58629;48.808;8.820;2023-03-14T04:53:58;95208.81;;;7.63;92.61
70968;BME280;58629;48.808;8.820;2023-03-14T04:56:23;95204.56;;;7.56;93.97
70968;BME280;58629;48.808;8.820;2023-03-14T04:58:49;95202.91;;;7.50;93.78
70968;BME280;58629;48.808;8.820;2023-03-14T05:01:14;95201.84;;;7.47;93.52
70968;BME280;58629;48.808;8.820;2023-03-14T05:03:40;95187.72;;;7.54;91.72
70968;BME280;58629;48.808;8.820;2023-03-14T05:06:05;95193.41;;;7.52;93.07
70968;BME280;58629;48.808;8.820;2023-03-14T05:08:30;95200.75;;;7.57;91.50
70968;BME280;58629;48.808;8.820;2023-03-14T05:10:57;95193.00;;;7.63;91.79
70968;BME280;58629;48.808;8.820;2023-03-14T05:13:23;95193.00;;;7.63;91.48
70968;BME280;58629;48.808;8.820;2023-03-14T05:15:48;95185.97;;;7.60;92.27
70968;BME280;58629;48.808;8.820;2023-03-14T05:18:15;95174.84;;;7.56;93.60
70968;BME280;58629;48.808;8.820;2023-03-14T05:20:41;95167.03;;;7.43;93.24
70968;BME280;58629;48.808;8.820;2023-03-14T05:23:08;95173.78;;;7.44;93.41
70968;BME280;58629;48.808;8.820;2023-03-14T05:25:33;95171.91;;;7.54;93.25
70968;BME280;58629;48.808;8.820;2023-03-14T05:27:58;95187.28;;;7.55;93.21
70968;BME280;58629;48.808;8.820;2023-03-14T05:30:24;95186.94;;;7.44;93.48
70968;BME280;58629;48.808;8.820;2023-03-14T05:32:49;95197.16;;;7.42;94.30
70968;BME280;58629;48.808;8.820;2023-03-14T05:35:14;95193.34;;;7.43;96.16
70968;BME280;58629;48.808;8.820;2023-03-14T05:37:40;95200.09;;;7.44;96.14
70968;BME280;58629;48.808;8.820;2023-03-14T05:40:06;95197.50;;;7.53;97.20
70968;BME280;58629;48.808;8.820;2023-03-14T05:42:32;95188.31;;;7.58;94.62
70968;BME280;58629;48.808;8.820;2023-03-14T05:44:58;95183.03;;;7.58;93.87
70968;BME280;58629;48.808;8.820;2023-03-14T05:47:24;95189.66;;;7.62;93.33
70968;BME280;58629;48.808;8.820;2023-03-14T05:49:49;95188.91;;;7.62;92.07
70968;BME280;58629;48.808;8.820;2023-03-14T05:52:14;95190.81;;;7.61;91.91
70968;BME280;58629;48.808;8.820;2023-03-14T05:54:39;95194.22;;;7.71;94.31
70968;BME280;58629;48.808;8.820;2023-03-14T05:57:05;95197.56;;;8.02;96.60
70968;BME280;58629;48.808;8.820;2023-03-14T05:59:30;95187.47;;;8.19;92.79
70968;BME280;58629;48.808;8.820;2023-03-14T06:01:56;95184.63;;;8.53;93.98
70968;BME280;58629;48.808;8.820;2023-03-14T06:04:21;95187.84;;;8.75;89.17
70968;BME280;58629;48.808;8.820;2023-03-14T06:06:46;95173.47;;;8.94;90.50
70968;BME280;58629;48.808;8.820;2023-03-14T06:09:12;95174.75;;;9.08;88.73
70968;BME280;58629;48.808;8.820;2023-03-14T06:11:37;95174.00;;;9.16;85.25
70968;BME280;58629;48.808;8.820;2023-03-14T06:14:02;95163.34;;;8.93;83.43
70968;BME280;58629;48.808;8.820;2023-03-14T06:16:27;95157.34;;;8.92;87.39
70968;BME280;58629;48.808;8.820;2023-03-14T06:18:53;95159.81;;;8.77;83.83
70968;BME280;58629;48.808;8.820;2023-03-14T06:21:18;95149.84;;;8.82;85.46
70968;BME280;58629;48.808;8.820;2023-03-14T06:23:44;95149.69;;;9.12;87.20
70968;BME280;58629;48.808;8.820;2023-03-14T06:26:10;95151.38;;;9.33;85.78
70968;BME280;58629;48.808;8.820;2023-03-14T06:28:36;95152.22;;;9.39;82.13
70968;BME280;58629;48.808;8.820;2023-03-14T06:31:02;95134.66;;;9.27;81.55
70968;BME280;58629;48.808;8.820;2023-03-14T06:33:28;95141.28;;;9.23;80.62
70968;BME280;58629;48.808;8.820;2023-03-14T06:35:53;95144.84;;;9.11;83.82
70968;BME280;58629;48.808;8.820;2023-03-14T06:38:18;95157.84;;;9.32;81.74
70968;BME280;58629;48.808;8.820;2023-03-14T06:40:43;95144.34;;;9.30;80.44
70968;BME280;58629;48.808;8.820;2023-03-14T06:43:09;95145.41;;;9.15;81.66
70968;BME280;58629;48.808;8.820;2023-03-14T06:45:34;95145.63;;;9.44;83.76
70968;BME280;58629;48.808;8.820;2023-03-14T06:47:59;95143.38;;;9.60;80.52
70968;BME280;58629;48.808;8.820;2023-03-14T06:50:25;95147.34;;;9.47;82.36
70968;BME280;58629;48.808;8.820;2023-03-14T06:52:50;95150.84;;;9.20;80.49
70968;BME280;58629;48.808;8.820;2023-03-14T06:55:15;95145.78;;;9.40;80.61
70968;BME280;58629;48.808;8.820;2023-03-14T06:57:41;95151.34;;;9.42;81.85
70968;BME280;58629;48.808;8.820;2023-03-14T07:00:07;95140.94;;;9.39;80.42
70968;BME280;58629;48.808;8.820;2023-03-14T07:02:32;95154.13;;;9.39;80.99
70968;BME280;58629;48.808;8.820;2023-03-14T07:04:58;95156.03;;;9.47;80.57
70968;BME280;58629;48.808;8.820;2023-03-14T07:07:24;95158.22;;;9.49;81.04
70968;BME280;58629;48.808;8.820;2023-03-14T07:09:49;95159.94;;;9.61;82.28
70968;BME280;58629;48.808;8.820;2023-03-14T07:12:14;95160.91;;;9.73;82.14
70968;BME280;58629;48.808;8.820;2023-03-14T07:14:39;95158.88;;;9.68;79.67
70968;BME280;58629;48.808;8.820;2023-03-14T07:17:05;95173.44;;;9.96;79.37
70968;BME280;58629;48.808;8.820;2023-03-14T07:19:30;95179.03;;;9.98;80.66
70968;BME280;58629;48.808;8.820;2023-03-14T07:21:55;95182.94;;;10.11;80.34
70968;BME280;58629;48.808;8.820;2023-03-14T07:24:21;95178.88;;;10.25;79.44
70968;BME280;58629;48.808;8.820;2023-03-14T07:26:46;95189.47;;;10.48;79.23
70968;BME280;58629;48.808;8.820;2023-03-14T07:29:11;95187.00;;;10.45;76.38
70968;BME280;58629;48.808;8.820;2023-03-14T07:31:36;95188.03;;;10.24;76.26
70968;BME280;58629;48.808;8.820;2023-03-14T07:34:02;95188.88;;;10.30;76.59
70968;BME280;58629;48.808;8.820;2023-03-14T07:36:28;95203.94;;;10.15;77.10
70968;BME280;58629;48.808;8.820;2023-03-14T07:38:53;95212.94;;;9.99;76.56
70968;BME280;58629;48.808;8.820;2023-03-14T07:41:18;95210.78;;;9.89;77.88
70968;BME280;58629;48.808;8.820;2023-03-14T07:43:43;95205.41;;;9.74;77.87
70968;BME280;58629;48.808;8.820;2023-03-14T07:46:09;95215.84;;;9.69;77.79
70968;BME280;58629;48.808;8.820;2023-03-14T07:48:34;95213.00;;;9.81;77.71
70968;BME280;58629;48.808;8.820;2023-03-14T07:50:59;95207.91;;;9.69;78.32
70968;BME280;58629;48.808;8.820;2023-03-14T07:53:25;95215.19;;;9.92;78.18
70968;BME280;58629;48.808;8.820;2023-03-14T07:55:52;95229.84;;;10.02;76.84
70968;BME280;58629;48.808;8.820;2023-03-14T07:58:18;95228.41;;;9.83;78.61
70968;BME280;58629;48.808;8.820;2023-03-14T08:00:43;95224.00;;;9.89;78.23
70968;BME280;58629;48.808;8.820;2023-03-14T08:03:09;95220.06;;;9.84;80.04
70968;BME280;58629;48.808;8.820;2023-03-14T08:05:36;95220.00;;;9.93;78.76
70968;BME280;58629;48.808;8.820;2023-03-14T08:08:01;95223.06;;;10.01;77.99
70968;BME280;58629;48.808;8.820;2023-03-14T08:10:27;95209.06;;;10.42;74.88
70968;BME280;58629;48.808;8.820;2023-03-14T08:12:55;95208.16;;;10.45;76.02
70968;BME280;58629;48.808;8.820;2023-03-14T08:15:21;95213.25;;;10.58;75.51
70968;BME280;58629;48.808;8.820;2023-03-14T08:17:46;95207.50;;;10.74;74.87
70968;BME280;58629;48.808;8.820;2023-03-14T08:20:16;95209.69;;;10.99;75.85
70968;BME280;58629;48.808;8.820;2023-03-14T08:22:42;95208.84;;;11.07;72.01
70968;BME280;58629;48.808;8.820;2023-03-14T08:25:07;95203.38;;;10.96;74.70
70968;BME280;58629;48.808;8.820;2023-03-14T08:27:32;95199.41;;;10.77;74.76
70968;BME280;58629;48.808;8.820;2023-03-14T08:29:58;95205.78;;;10.71;75.50
70968;BME280;58629;48.808;8.820;2023-03-14T08:32:23;95198.59;;;10.71;74.20
70968;BME280;58629;48.808;8.820;2023-03-14T08:34:48;95204.56;;;10.57;73.45
70968;BME280;58629;48.808;8.820;2023-03-14T08:37:14;95202.28;;;10.65;74.37
70968;BME280;58629;48.808;8.820;2023-03-14T08:39:39;95208.66;;;10.58;72.65
70968;BME280;58629;48.808;8.820;2023-03-14T08:42:04;95202.53;;;10.52;74.51
70968;BME280;58629;48.808;8.820;2023-03-14T08:44:30;95219.06;;;10.38;76.18
70968;BME280;58629;48.808;8.820;2023-03-14T08:46:55;95214.75;;;10.26;75.57
70968;BME280;58629;48.808;8.820;2023-03-14T08:49:21;95210.13;;;10.35;76.13
70968;BME280;58629;48.808;8.820;2023-03-14T08:51:46;95203.72;;;10.51;76.53
70968;BME280;58629;48.808;8.820;2023-03-14T08:54:11;95214.41;;;10.57;77.41
70968;BME280;58629;48.808;8.820;2023-03-14T08:56:37;95220.28;;;10.37;80.10
70968;BME280;58629;48.808;8.820;2023-03-14T08:59:05;95219.47;;;10.22;80.45
70968;BME280;58629;48.808;8.820;2023-03-14T09:01:31;95233.41;;;10.22;80.64
70968;BME280;58629;48.808;8.820;2023-03-14T09:03:57;95233.59;;;10.19;80.08
70968;BME280;58629;48.808;8.820;2023-03-14T09:06:22;95240.69;;;10.36;79.04
70968;BME280;58629;48.808;8.820;2023-03-14T09:08:47;95246.44;;;10.35;79.92
70968;BME280;58629;48.808;8.820;2023-03-14T09:11:13;95242.66;;;10.27;79.03
70968;BME280;58629;48.808;8.820;2023-03-14T09:13:39;95251.00;;;10.34;78.75
70968;BME280;58629;48.808;8.820;2023-03-14T09:16:05;95243.91;;;10.40;80.45
70968;BME280;58629;48.808;8.820;2023-03-14T09:18:31;95250.81;;;10.38;78.64
70968;BME280;58629;48.808;8.820;2023-03-14T09:20:56;95248.31;;;10.43;78.45
70968;BME280;58629;48.808;8.820;2023-03-14T09:23:21;95254.56;;;10.55;78.28
70968;BME280;58629;48.808;8.820;2023-03-14T09:25:47;95253.38;;;10.56;76.52
70968;BME280;58629;48.808;8.820;2023-03-14T09:28:12;95259.69;;;10.59;79.86
70968;BME280;58629;48.808;8.820;2023-03-14T09:30:38;95265.81;;;10.41;78.95
70968;BME280;58629;48.808;8.820;2023-03-14T09:33:03;95276.84;;;10.39;79.12
70968;BME280;58629;48.808;8.820;2023-03-14T09:35:29;95267.50;;;10.53;79.34
70968;BME280;58629;48.808;8.820;2023-03-14T09:37:54;95266.59;;;10.56;80.08
70968;BME280;58629;48.808;8.820;2023-03-14T09:40:20;95281.53;;;10.68;81.71
70968;BME280;58629;48.808;8.820;2023-03-14T09:42:53;95276.59;;;10.85;80.96
70968;BME280;58629;48.808;8.820;2023-03-14T09:45:36;95276.88;;;11.01;80.20
70968;BME280;58629;48.808;8.820;2023-03-14T09:48:04;95277.69;;;11.31;79.67
70968;BME280;58629;48.808;8.820;2023-03-14T09:50:35;95270.78;;;11.77;79.66
70968;BME280;58629;48.808;8.820;2023-03-14T09:53:06;95272.53;;;11.95;76.87
70968;BME280;58629;48.808;8.820;2023-03-14T09:55:32;95280.56;;;12.00;78.44
70968;BME280;58629;48.808;8.820;2023-03-14T09:58:00;95266.84;;;12.02;75.10
70968;BME280;58629;48.808;8.820;2023-03-14T10:00:29;95266.59;;;12.00;76.37
70968;BME280;58629;48.808;8.820;2023-03-14T10:03:00;95263.63;;;12.12;76.61
70968;BME280;58629;48.808;8.820;2023-03-14T10:05:32;95273.44;;;11.77;74.34
70968;BME280;58629;48.808;8.820;2023-03-14T10:07:57;95268.22;;;11.83;74.45
70968;BME280;58629;48.808;8.820;2023-03-14T10:10:25;95266.66;;;11.62;73.26
70968;BME280;58629;48.808;8.820;2023-03-14T10:13:05;95267.31;;;11.57;74.99
70968;BME280;58629;48.808;8.820;2023-03-14T10:15:37;95273.06;;;11.41;75.99
70968;BME280;58629;48.808;8.820;2023-03-14T10:18:03;95283.75;;;11.08;79.96
70968;BME280;58629;48.808;8.820;2023-03-14T10:20:36;95290.50;;;10.94;79.38
70968;BME280;58629;48.808;8.820;2023-03-14T10:25:34;95290.00;;;10.81;78.62
70968;BME280;58629;48.808;8.820;2023-03-14T10:27:59;95287.78;;;10.80;80.60
70968;BME280;58629;48.808;8.820;2023-03-14T10:30:44;95286.94;;;10.74;82.27
70968;BME280;58629;48.808;8.820;2023-03-14T10:35:44;95287.50;;;10.54;81.34
70968;BME280;58629;48.808;8.820;2023-03-14T10:38:15;95293.41;;;10.49;81.87
70968;BME280;58629;48.808;8.820;2023-03-14T10:40:47;95287.78;;;10.56;81.09
70968;BME280;58629;48.808;8.820;2023-03-14T10:43:19;95304.19;;;10.36;80.95
70968;BME280;58629;48.808;8.820;2023-03-14T10:45:58;95299.81;;;10.33;82.08
70968;BME280;58629;48.808;8.820;2023-03-14T10:48:32;95305.16;;;10.15;82.28
70968;BME280;58629;48.808;8.820;2023-03-14T10:53:38;95319.28;;;10.03;85.81
70968;BME280;58629;48.808;8.820;2023-03-14T10:56:05;95316.34;;;10.10;84.85
70968;BME280;58629;48.808;8.820;2023-03-14T10:58:35;95327.81;;;9.98;87.93
70968;BME280;58629;48.808;8.820;2023-03-14T11:03:53;95326.09;;;9.86;87.13
70968;BME280;58629;48.808;8.820;2023-03-14T11:06:30;95328.44;;;9.84;86.34
70968;BME280;58629;48.808;8.820;2023-03-14T11:11:31;95333.28;;;9.77;89.47
70968;BME280;58629;48.808;8.820;2023-03-14T11:14:16;95341.22;;;9.77;88.60
70968;BME280;58629;48.808;8.820;2023-03-14T11:16:59;95330.34;;;9.84;88.61
70968;BME280;58629;48.808;8.820;2023-03-14T11:22:14;95343.41;;;9.87;87.28
70968;BME280;58629;48.808;8.820;2023-03-14T11:27:30;95348.84;;;9.93;88.42
70968;BME280;58629;48.808;8.820;2023-03-14T11:30:17;95354.16;;;9.84;85.08
70968;BME280;58629;48.808;8.820;2023-03-14T11:35:42;95352.97;;;9.76;89.55
70968;BME280;58629;48.808;8.820;2023-03-14T11:40:51;95358.28;;;9.48;89.62
70968;BME280;58629;48.808;8.820;2023-03-14T11:43:28;95362.53;;;9.55;89.37
70968;BME280;58629;48.808;8.820;2023-03-14T11:46:08;95362.97;;;9.72;88.57
70968;BME280;58629;48.808;8.820;2023-03-14T11:51:29;95378.38;;;9.82;89.46
70968;BME280;58629;48.808;8.820;2023-03-14T11:54:22;95394.53;;;9.75;88.37
70968;BME280;58629;48.808;8.820;2023-03-14T11:57:03;95404.81;;;9.64;88.10
70968;BME280;58629;48.808;8.820;2023-03-14T12:02:03;95417.16;;;9.85;88.74
70968;BME280;58629;48.808;8.820;2023-03-14T12:04:48;95432.81;;;9.25;88.42
70968;BME280;58629;48.808;8.820;2023-03-14T12:07:19;95452.94;;;9.32;86.59
70968;BME280;58629;48.808;8.820;2023-03-14T12:09:48;95457.31;;;9.17;87.10
70968;BME280;58629;48.808;8.820;2023-03-14T12:12:19;95469.66;;;8.80;87.27
70968;BME280;58629;48.808;8.820;2023-03-14T12:14:56;95489.94;;;8.61;88.15
70968;BME280;58629;48.808;8.820;2023-03-14T12:17:35;95535.81;;;8.21;83.87
70968;BME280;58629;48.808;8.820;2023-03-14T12:20:19;95533.81;;;8.25;85.05
70968;BME280;58629;48.808;8.820;2023-03-14T12:22:52;95519.78;;;8.80;79.79
70968;BME280;58629;48.808;8.820;2023-03-14T12:25:25;95542.34;;;9.03;77.36
70968;BME280;58629;48.808;8.820;2023-03-14T12:30:27;95535.41;;;9.27;75.16
70968;BME280;58629;48.808;8.820;2023-03-14T12:35:43;95565.38;;;9.33;69.93
70968;BME280;58629;48.808;8.820;2023-03-14T12:38:30;95562.06;;;9.69;70.25
70968;BME280;58629;48.808;8.820;2023-03-14T12:43:49;95587.31;;;9.60;70.31
70968;BME280;58629;48.808;8.820;2023-03-14T12:48:43;95602.09;;;8.66;70.18
70968;BME280;58629;48.808;8.820;2023-03-14T12:51:14;95598.81;;;9.05;71.06
70968;BME280;58629;48.808;8.820;2023-03-14T12:56:45;95616.75;;;9.10;69.30
70968;BME280;58629;48.808;8.820;2023-03-14T13:07:12;95654.91;;;8.07;68.05
70968;BME280;58629;48.808;8.820;2023-03-14T13:09:52;95650.69;;;8.09;64.71
70968;BME280;58629;48.808;8.820;2023-03-14T13:12:23;95660.50;;;8.09;66.48
70968;BME280;58629;48.808;8.820;2023-03-14T13:14:53;95662.94;;;8.03;66.25
70968;BME280;58629;48.808;8.820;2023-03-14T13:17:30;95674.94;;;8.29;67.18
70968;BME280;58629;48.808;8.820;2023-03-14T13:19:57;95670.91;;;8.37;65.75
70968;BME280;58629;48.808;8.820;2023-03-14T13:22:28;95675.13;;;8.35;66.27
70968;BME280;58629;48.808;8.820;2023-03-14T13:25:04;95681.09;;;8.48;64.18
70968;BME280;58629;48.808;8.820;2023-03-14T13:27:32;95668.16;;;8.41;63.13
70968;BME280;58629;48.808;8.820;2023-03-14T13:29:58;95715.22;;;8.42;64.35
70968;BME280;58629;48.808;8.820;2023-03-14T13:32:28;95720.72;;;8.35;63.09
70968;BME280;58629;48.808;8.820;2023-03-14T13:34:59;95717.97;;;8.14;59.47
70968;BME280;58629;48.808;8.820;2023-03-14T13:37:26;95755.81;;;7.95;61.41
70968;BME280;58629;48.808;8.820;2023-03-14T13:39:53;95737.81;;;7.93;63.08
70968;BME280;58629;48.808;8.820;2023-03-14T13:42:21;95740.56;;;8.02;57.45
70968;BME280;58629;48.808;8.820;2023-03-14T13:44:47;95777.78;;;7.92;59.12
70968;BME280;58629;48.808;8.820;2023-03-14T13:47:16;95788.75;;;8.53;58.67
70968;BME280;58629;48.808;8.820;2023-03-14T13:49:43;95793.44;;;8.83;57.00
70968;BME280;58629;48.808;8.820;2023-03-14T13:52:29;95820.41;;;8.65;59.43
70968;BME280;58629;48.808;8.820;2023-03-14T13:54:56;95816.16;;;8.68;54.63
70968;BME280;58629;48.808;8.820;2023-03-14T13:57:22;95836.75;;;8.48;52.93
70968;BME280;58629;48.808;8.820;2023-03-14T14:00:05;95821.16;;;8.41;52.73
70968;BME280;58629;48.808;8.820;2023-03-14T14:02:33;95821.00;;;8.07;54.63
70968;BME280;58629;48.808;8.820;2023-03-14T14:04:59;95843.41;;;7.73;55.62
70968;BME280;58629;48.808;8.820;2023-03-14T14:07:25;95870.13;;;7.88;55.59